Time;durP1;ratioP1;P1;durP2;ratioP2;P2;SDS_P1;SDS_P2;PMS_P1;PMS_P2;Temp;Humidity;BMP_temperature;BMP_pressure;BME280_temperature;BME280_humidity;BME280_pressure;Samples;Min_cycle;Max_cycle;Signal;HPM_P1;HPM_P2
2021/03/08 00:02:20;;;;;;;5.27;3.10;;;0.30;99.90;;;;;;4434654;32;20141;-71
2021/03/08 00:04:47;;;;;;;6.37;2.97;;;0.30;99.90;;;;;;4444515;32;20171;-71
2021/03/08 00:07:13;;;;;;;6.30;3.07;;;0.20;99.90;;;;;;4441914;32;20397;-73
2021/03/08 00:09:41;;;;;;;7.43;3.13;;;0.10;99.90;;;;;;4441889;32;20154;-72
2021/03/08 00:12:08;;;;;;;6.43;2.90;;;0.00;99.90;;;;;;4442415;32;20146;-71
2021/03/08 00:14:35;;;;;;;6.03;3.30;;;-0.10;99.90;;;;;;4443264;32;20456;-72
2021/03/08 00:17:03;;;;;;;6.73;3.53;;;0.00;99.90;;;;;;4441802;32;20158;-72
2021/03/08 00:19:33;;;;;;;6.70;3.40;;;-0.10;99.90;;;;;;4443302;32;20154;-72
2021/03/08 00:21:59;;;;;;;5.93;3.40;;;-0.20;99.90;;;;;;4442044;32;20193;-72
2021/03/08 00:24:25;;;;;;;6.77;3.60;;;-0.20;99.90;;;;;;4441946;32;20154;-72
2021/03/08 00:26:52;;;;;;;6.23;3.37;;;-0.30;99.90;;;;;;4442414;32;20151;-72
2021/03/08 00:29:18;;;;;;;9.07;3.93;;;-0.30;99.90;;;;;;4429347;32;20142;-72
2021/03/08 00:31:45;;;;;;;5.73;3.30;;;-0.30;99.90;;;;;;4441607;32;20170;-73
2021/03/08 00:34:14;;;;;;;6.50;3.60;;;-0.40;99.90;;;;;;4443077;32;20200;-72
2021/03/08 00:36:40;;;;;;;6.07;3.73;;;-0.40;99.90;;;;;;4441793;32;20185;-72
2021/03/08 00:39:07;;;;;;;7.80;4.17;;;-0.40;99.90;;;;;;4442972;32;20190;-72
2021/03/08 00:41:33;;;;;;;7.50;3.87;;;-0.50;99.90;;;;;;4441474;32;20165;-73
2021/03/08 00:44:00;;;;;;;8.53;4.30;;;-0.50;99.90;;;;;;4440966;32;20142;-73
2021/03/08 00:46:26;;;;;;;6.37;3.90;;;-0.50;99.90;;;;;;4441327;32;20176;-72
2021/03/08 00:48:53;;;;;;;7.67;4.27;;;-0.50;99.90;;;;;;4441256;32;20169;-73
2021/03/08 00:51:20;;;;;;;7.13;4.17;;;-0.60;99.90;;;;;;4441406;32;20165;-72
2021/03/08 00:53:46;;;;;;;7.60;4.10;;;-0.50;99.90;;;;;;4441341;32;20181;-72
2021/03/08 00:56:13;;;;;;;8.60;4.47;;;-0.70;99.90;;;;;;4441501;32;20197;-71
2021/03/08 00:58:39;;;;;;;7.20;4.17;;;-0.70;99.90;;;;;;4441024;32;20541;-72
2021/03/08 01:01:05;;;;;;;8.97;4.60;;;-0.70;99.90;;;;;;4441505;32;20138;-71
2021/03/08 01:03:32;;;;;;;8.93;4.70;;;-0.70;99.90;;;;;;4441041;32;20146;-72
2021/03/08 01:05:59;;;;;;;8.33;4.40;;;-0.70;99.90;;;;;;4441468;32;20143;-72
2021/03/08 01:08:27;;;;;;;9.00;4.53;;;-0.70;99.90;;;;;;4441183;32;20181;-72
2021/03/08 01:10:54;;;;;;;9.20;4.80;;;-0.70;99.90;;;;;;4442603;32;20421;-72
2021/03/08 01:13:21;;;;;;;7.53;4.20;;;-0.70;99.90;;;;;;4441044;32;20189;-72
2021/03/08 01:15:50;;;;;;;9.50;4.60;;;-0.70;99.90;;;;;;4440744;32;20468;-71
2021/03/08 01:18:20;;;;;;;9.10;4.60;;;-0.80;99.90;;;;;;4440508;32;20162;-72
2021/03/08 01:20:47;;;;;;;9.17;4.70;;;-0.80;99.90;;;;;;4440979;32;20227;-72
2021/03/08 01:23:14;;;;;;;8.13;4.93;;;-0.80;99.90;;;;;;4440532;32;20189;-73
2021/03/08 01:25:41;;;;;;;8.73;4.80;;;-0.90;99.90;;;;;;4426500;32;20249;-72
2021/03/08 01:28:08;;;;;;;8.40;4.80;;;-0.90;99.90;;;;;;4440855;32;20135;-72
2021/03/08 01:30:43;;;;;;;9.83;4.83;;;-0.90;99.90;;;;;;4440717;32;20161;-72
2021/03/08 01:33:10;;;;;;;8.97;4.63;;;-0.90;99.90;;;;;;4442640;32;20134;-72
2021/03/08 01:35:38;;;;;;;9.00;4.70;;;-1.00;99.90;;;;;;4442074;32;20200;-72
2021/03/08 01:38:06;;;;;;;10.97;5.17;;;-1.00;99.90;;;;;;4440598;32;20196;-72
2021/03/08 01:40:36;;;;;;;9.47;4.90;;;-1.10;99.90;;;;;;4442070;32;20477;-72
2021/03/08 01:43:03;;;;;;;7.93;4.77;;;-1.10;99.90;;;;;;4440655;32;20143;-72
2021/03/08 01:45:30;;;;;;;8.13;4.77;;;-1.10;99.90;;;;;;4440715;32;20512;-72
2021/03/08 01:47:57;;;;;;;8.10;4.87;;;-1.20;99.90;;;;;;4441245;32;20219;-72
2021/03/08 01:50:31;;;;;;;9.77;5.13;;;-1.10;99.90;;;;;;4440935;32;20165;-72
2021/03/08 01:52:59;;;;;;;9.47;4.83;;;-1.20;99.90;;;;;;4440455;32;20416;-72
2021/03/08 01:55:26;;;;;;;10.60;5.27;;;-1.20;99.90;;;;;;4441035;32;20453;-72
2021/03/08 01:57:53;;;;;;;11.93;5.53;;;-1.10;99.90;;;;;;4425622;32;20163;-70
2021/03/08 02:00:23;;;;;;;10.60;5.03;;;-1.20;99.90;;;;;;4440342;32;20138;-72
2021/03/08 02:02:50;;;;;;;11.00;5.00;;;-1.20;99.90;;;;;;4441803;32;20146;-72
2021/03/08 02:05:20;;;;;;;8.87;5.03;;;-1.20;99.90;;;;;;4440304;32;20158;-70
2021/03/08 02:07:46;;;;;;;12.87;4.90;;;-1.30;99.90;;;;;;4440395;32;20432;-70
2021/03/08 02:10:14;;;;;;;9.13;4.80;;;-1.30;99.90;;;;;;4440209;32;20158;-71
2021/03/08 02:12:47;;;;;;;9.40;5.00;;;-1.40;99.90;;;;;;4440646;32;20185;-72
2021/03/08 02:15:56;;;;;;;9.93;5.20;;;-1.40;99.90;;;;;;4438175;32;20449;-72
2021/03/08 02:18:30;;;;;;;8.97;5.37;;;-1.40;99.90;;;;;;4439755;32;20199;-72
2021/03/08 02:21:27;;;;;;;12.83;5.20;;;-1.50;99.90;;;;;;4439354;32;20230;-72
2021/03/08 02:24:16;;;;;;;11.03;5.17;;;-1.40;99.90;;;;;;4438152;32;20207;-71
2021/03/08 02:26:50;;;;;;;10.40;5.37;;;-1.50;99.90;;;;;;4423646;32;20205;-72
2021/03/08 02:29:51;;;;;;;11.00;5.73;;;-1.50;99.90;;;;;;4439067;32;20197;-72
2021/03/08 02:32:28;;;;;;;10.00;4.97;;;-1.50;99.90;;;;;;4440467;32;20165;-72
2021/03/08 02:35:16;;;;;;;10.77;5.17;;;-1.50;99.90;;;;;;4440607;32;20423;-72
2021/03/08 02:37:54;;;;;;;11.10;5.37;;;-1.50;99.90;;;;;;4441233;32;20437;-72
2021/03/08 02:40:29;;;;;;;13.47;5.53;;;-1.60;99.90;;;;;;4441676;32;20142;-71
2021/03/08 02:42:58;;;;;;;9.43;5.30;;;-1.60;99.90;;;;;;4441367;32;20142;-72
2021/03/08 02:45:27;;;;;;;12.03;5.90;;;-1.60;99.90;;;;;;4439758;32;20446;-72
2021/03/08 02:47:57;;;;;;;8.73;5.33;;;-1.60;99.90;;;;;;4439731;32;20151;-72
2021/03/08 02:50:31;;;;;;;11.60;5.30;;;-1.70;99.90;;;;;;4441351;32;20237;-72
2021/03/08 02:53:03;;;;;;;11.73;5.07;;;-1.70;99.90;;;;;;4440025;32;20157;-72
2021/03/08 02:55:40;;;;;;;9.67;5.27;;;-1.70;99.90;;;;;;4439731;32;20150;-72
2021/03/08 02:58:10;;;;;;;10.20;4.97;;;-1.70;99.90;;;;;;4439800;32;20183;-72
2021/03/08 03:00:38;;;;;;;8.90;5.07;;;-1.70;99.90;;;;;;4441186;32;20416;-72
2021/03/08 03:03:07;;;;;;;12.53;5.53;;;-1.70;99.90;;;;;;4439686;32;20330;-72
2021/03/08 03:05:37;;;;;;;14.03;5.57;;;-1.70;99.90;;;;;;4439486;32;20184;-72
2021/03/08 03:08:05;;;;;;;12.97;5.60;;;-1.70;99.90;;;;;;4438670;32;20174;-72
2021/03/08 03:10:33;;;;;;;9.73;5.40;;;-1.80;99.90;;;;;;4437785;32;20201;-72
2021/03/08 03:13:03;;;;;;;13.63;5.97;;;-1.80;99.90;;;;;;4440463;32;20150;-72
2021/03/08 03:15:36;;;;;;;10.20;5.50;;;-1.80;99.90;;;;;;4441142;32;20150;-72
2021/03/08 03:18:06;;;;;;;11.03;5.43;;;-1.80;99.90;;;;;;4440348;32;20150;-72
2021/03/08 03:20:34;;;;;;;10.60;5.10;;;-1.70;99.90;;;;;;4439830;32;20197;-72
2021/03/08 03:23:03;;;;;;;9.93;5.30;;;-1.70;99.90;;;;;;4439570;32;20187;-72
2021/03/08 03:25:31;;;;;;;10.53;5.57;;;-1.60;99.90;;;;;;4439954;32;20147;-72
2021/03/08 03:27:58;;;;;;;9.00;5.30;;;-1.70;99.90;;;;;;4441013;32;20165;-72
2021/03/08 03:30:28;;;;;;;10.87;5.97;;;-1.60;99.90;;;;;;4439514;32;20138;-72
2021/03/08 03:32:57;;;;;;;10.07;5.70;;;-1.60;99.90;;;;;;4441315;32;20430;-72
2021/03/08 03:35:26;;;;;;;9.80;5.27;;;-1.60;99.90;;;;;;4438846;32;20158;-72
2021/03/08 03:37:55;;;;;;;9.73;5.50;;;-1.60;99.90;;;;;;4439482;32;20185;-72
2021/03/08 03:40:23;;;;;;;10.37;5.30;;;-1.60;99.90;;;;;;4440749;32;20183;-72
2021/03/08 03:42:51;;;;;;;9.73;5.23;;;-1.60;99.90;;;;;;4443896;32;20160;-72
2021/03/08 03:45:20;;;;;;;13.07;5.33;;;-1.60;99.90;;;;;;4442509;32;20147;-72
2021/03/08 03:47:48;;;;;;;10.07;5.10;;;-1.60;99.90;;;;;;4443799;32;20182;-72
2021/03/08 03:50:19;;;;;;;10.70;5.23;;;-1.60;99.90;;;;;;4442193;32;20198;-72
2021/03/08 03:52:45;;;;;;;14.47;5.90;;;-1.60;99.90;;;;;;4430345;32;20389;-72
2021/03/08 03:55:14;;;;;;;9.17;5.47;;;-1.50;99.90;;;;;;4442289;32;20181;-72
2021/03/08 03:57:56;;;;;;;12.13;5.50;;;-1.60;99.90;;;;;;4442176;32;20160;-72
2021/03/08 04:00:24;;;;;;;11.73;5.50;;;-1.70;99.90;;;;;;4443869;32;20440;-72
2021/03/08 04:03:08;;;;;;;10.47;5.43;;;-1.70;99.90;;;;;;4442103;32;20161;-72
2021/03/08 04:05:36;;;;;;;9.10;5.10;;;-1.70;99.90;;;;;;4441854;32;20170;-72
2021/03/08 04:08:05;;;;;;;10.73;5.40;;;-1.70;99.90;;;;;;4443509;32;20142;-72
2021/03/08 04:10:33;;;;;;;12.83;5.50;;;-1.70;99.90;;;;;;4441955;32;20154;-72
2021/03/08 04:13:04;;;;;;;10.23;5.23;;;-1.70;99.90;;;;;;4441939;32;20379;-72
2021/03/08 04:15:32;;;;;;;11.20;5.73;;;-1.80;99.90;;;;;;4442554;32;20223;-72
2021/03/08 04:18:00;;;;;;;10.87;5.33;;;-1.80;99.90;;;;;;4441886;32;20164;-72
2021/03/08 04:20:30;;;;;;;10.57;5.80;;;-1.80;99.90;;;;;;4443294;32;20199;-71
2021/03/08 04:23:01;;;;;;;9.23;5.23;;;-1.80;99.90;;;;;;4442109;32;20508;-72
2021/03/08 04:25:30;;;;;;;11.63;5.60;;;-1.90;99.90;;;;;;4442041;32;20499;-72
2021/03/08 04:27:59;;;;;;;9.70;5.37;;;-1.80;99.90;;;;;;4443251;32;20208;-71
2021/03/08 04:30:26;;;;;;;10.50;5.40;;;-1.80;99.90;;;;;;4441573;32;20144;-72
2021/03/08 04:32:53;;;;;;;9.07;5.67;;;-1.90;99.90;;;;;;4442858;32;20442;-72
2021/03/08 04:35:27;;;;;;;11.17;5.40;;;-1.90;99.90;;;;;;4441535;32;20188;-72
2021/03/08 04:37:56;;;;;;;11.27;4.90;;;-1.90;99.90;;;;;;4443150;32;20166;-72
2021/03/08 04:40:23;;;;;;;9.37;5.00;;;-1.90;99.90;;;;;;4441490;32;20164;-72
2021/03/08 04:42:51;;;;;;;11.97;5.83;;;-1.90;99.90;;;;;;4441906;32;20150;-72
2021/03/08 04:45:19;;;;;;;9.87;5.30;;;-1.90;99.90;;;;;;4441443;32;20158;-72
2021/03/08 04:47:47;;;;;;;9.53;4.83;;;-2.00;99.90;;;;;;4441494;32;20433;-72
2021/03/08 04:50:15;;;;;;;9.63;4.60;;;-2.00;99.90;;;;;;4441183;32;20193;-72
2021/03/08 04:52:47;;;;;;;11.23;5.47;;;-1.90;99.90;;;;;;4440097;32;20188;-72
2021/03/08 04:55:14;;;;;;;12.03;5.20;;;-2.00;99.90;;;;;;4441014;32;20155;-72
2021/03/08 04:57:43;;;;;;;9.53;5.30;;;-2.00;99.90;;;;;;4428985;32;20154;-72
2021/03/08 05:00:11;;;;;;;13.17;5.53;;;-2.00;99.90;;;;;;4441252;32;20229;-72
2021/03/08 05:02:44;;;;;;;11.33;5.13;;;-2.00;99.90;;;;;;4442293;32;20135;-72
2021/03/08 05:05:18;;;;;;;10.97;5.03;;;-2.00;99.90;;;;;;4440907;32;20188;-72
2021/03/08 05:07:46;;;;;;;12.67;5.90;;;-2.00;99.90;;;;;;4442343;32;20186;-72
2021/03/08 05:10:18;;;;;;;12.10;5.20;;;-2.10;99.90;;;;;;4441096;32;20155;-72
2021/03/08 05:12:47;;;;;;;11.33;5.57;;;-2.10;99.90;;;;;;4442723;32;20146;-72
2021/03/08 05:15:15;;;;;;;12.77;5.80;;;-2.10;99.90;;;;;;4440970;32;20166;-72
2021/03/08 05:17:43;;;;;;;11.20;5.73;;;-2.10;99.90;;;;;;4440946;32;20396;-71
2021/03/08 05:20:14;;;;;;;10.93;5.67;;;-2.10;99.90;;;;;;4441439;32;20525;-72
2021/03/08 05:22:41;;;;;;;10.70;5.60;;;-2.10;99.90;;;;;;4441161;32;20185;-72
2021/03/08 05:25:09;;;;;;;12.37;5.50;;;-2.10;99.90;;;;;;4441400;32;20135;-72
2021/03/08 05:27:38;;;;;;;13.13;5.70;;;-2.10;99.90;;;;;;4441042;32;20194;-72
2021/03/08 05:30:06;;;;;;;11.40;5.47;;;-2.10;99.90;;;;;;4441673;32;20164;-72
2021/03/08 05:32:52;;;;;;;9.87;5.20;;;-2.10;99.90;;;;;;4441276;32;20162;-71
2021/03/08 05:35:20;;;;;;;10.60;5.33;;;-2.10;99.90;;;;;;4441221;32;20204;-72
2021/03/08 05:37:47;;;;;;;11.10;5.60;;;-2.10;99.90;;;;;;4442605;32;20174;-72
2021/03/08 05:40:37;;;;;;;12.47;5.40;;;-2.00;99.90;;;;;;4440695;32;20154;-72
2021/03/08 05:43:07;;;;;;;13.13;5.33;;;-2.00;99.90;;;;;;4442137;32;20138;-72
2021/03/08 05:45:44;;;;;;;9.13;4.83;;;-2.00;99.90;;;;;;4440007;32;20197;-72
2021/03/08 05:48:35;;;;;;;9.83;4.87;;;-2.00;99.90;;;;;;4442317;32;20150;-72
2021/03/08 05:51:18;;;;;;;10.60;5.07;;;-2.00;99.90;;;;;;4439992;32;20427;-72
2021/03/08 05:54:18;;;;;;;12.00;5.23;;;-1.90;99.90;;;;;;4442263;32;20185;-72
2021/03/08 05:57:16;;;;;;;12.20;5.73;;;-2.00;99.90;;;;;;4441727;32;20166;-72
2021/03/08 06:00:01;;;;;;;10.80;5.63;;;-2.00;99.90;;;;;;4442167;32;20151;-72
2021/03/08 06:02:49;;;;;;;9.93;4.70;;;-1.90;99.90;;;;;;4440112;32;20188;-72
2021/03/08 06:05:30;;;;;;;10.27;5.30;;;-1.80;99.90;;;;;;4440656;32;20207;-72
2021/03/08 06:08:12;;;;;;;13.23;5.43;;;-1.80;99.90;;;;;;4440361;32;20224;-71
2021/03/08 06:10:47;;;;;;;8.93;5.03;;;-1.80;99.90;;;;;;4441138;32;20189;-72
2021/03/08 06:13:18;;;;;;;9.87;4.40;;;-1.70;99.90;;;;;;4440608;32;20156;-70
2021/03/08 06:15:54;;;;;;;10.40;4.83;;;-1.60;99.90;;;;;;4441501;32;20347;-71
2021/03/08 06:18:26;;;;;;;8.30;4.57;;;-1.60;99.90;;;;;;4439976;32;20514;-71
2021/03/08 06:20:56;;;;;;;9.87;4.60;;;-1.60;99.90;;;;;;4441869;32;20150;-70
2021/03/08 06:23:26;;;;;;;15.00;4.80;;;-1.50;99.90;;;;;;4439916;32;20157;-71
2021/03/08 06:25:56;;;;;;;9.60;4.30;;;-1.40;99.90;;;;;;4441490;32;20187;-72
2021/03/08 06:28:24;;;;;;;8.50;4.07;;;-1.40;99.90;;;;;;4440742;32;20151;-72
2021/03/08 06:30:51;;;;;;;8.77;4.70;;;-1.30;99.90;;;;;;4441313;32;20169;-71
2021/03/08 06:33:18;;;;;;;10.50;4.27;;;-1.30;99.90;;;;;;4440930;32;20150;-71
2021/03/08 06:35:45;;;;;;;9.40;4.43;;;-1.20;99.90;;;;;;4439613;32;20153;-72
2021/03/08 06:38:12;;;;;;;9.10;4.53;;;-1.10;99.90;;;;;;4440499;32;20371;-71
2021/03/08 06:40:39;;;;;;;7.47;3.90;;;-1.10;99.90;;;;;;4441374;32;20135;-72
2021/03/08 06:43:05;;;;;;;9.07;3.73;;;-0.90;99.90;;;;;;4440717;32;20177;-71
2021/03/08 06:45:32;;;;;;;7.13;3.67;;;-0.80;99.90;;;;;;4439727;32;20199;-71
2021/03/08 06:47:58;;;;;;;6.73;3.70;;;-0.80;99.90;;;;;;4441173;32;20150;-72
2021/03/08 06:50:25;;;;;;;6.50;3.70;;;-0.90;99.90;;;;;;4441144;32;20158;-72
2021/03/08 06:52:52;;;;;;;8.70;4.10;;;-0.90;99.90;;;;;;4441412;32;20146;-72
2021/03/08 06:55:21;;;;;;;7.53;3.67;;;-0.80;99.90;;;;;;4441189;32;20415;-71
2021/03/08 06:57:47;;;;;;;6.37;3.60;;;-0.80;99.90;;;;;;4439586;32;20210;-70
2021/03/08 07:00:15;;;;;;;7.80;3.57;;;-0.70;99.90;;;;;;4434402;32;20194;-71
2021/03/08 07:02:45;;;;;;;6.27;3.50;;;-0.70;99.90;;;;;;4424769;32;20165;-71
2021/03/08 07:05:27;;;;;;;8.20;3.73;;;-0.70;99.90;;;;;;4425521;32;20188;-70
2021/03/08 07:07:59;;;;;;;9.10;3.37;;;-0.70;99.90;;;;;;4424337;32;20145;-71
2021/03/08 07:10:34;;;;;;;9.03;3.57;;;-0.60;99.90;;;;;;4426253;32;20142;-70
2021/03/08 07:13:03;;;;;;;6.53;3.20;;;-0.50;99.90;;;;;;4424015;32;20192;-70
2021/03/08 07:15:29;;;;;;;8.27;3.50;;;-0.40;99.90;;;;;;4425098;32;20146;-70
2021/03/08 07:17:56;;;;;;;8.37;3.40;;;-0.30;99.90;;;;;;4427198;32;20143;-70
2021/03/08 07:20:26;;;;;;;6.20;3.23;;;-0.30;99.90;;;;;;4427200;32;20167;-70
2021/03/08 07:22:55;;;;;;;7.13;3.60;;;-0.20;99.90;;;;;;4427159;32;20154;-69
2021/03/08 07:25:26;;;;;;;8.80;3.50;;;-0.10;99.90;;;;;;4426410;32;20166;-70
2021/03/08 07:27:57;;;;;;;7.13;3.03;;;-0.10;99.90;;;;;;4427043;32;20198;-73
2021/03/08 07:30:31;;;;;;;7.63;3.30;;;-0.10;99.90;;;;;;4428627;32;20144;-73
2021/03/08 07:33:03;;;;;;;5.80;3.00;;;-0.10;99.90;;;;;;4427029;32;20198;-72
2021/03/08 07:35:39;;;;;;;6.77;3.13;;;0.00;99.90;;;;;;4427489;32;20150;-70
2021/03/08 07:38:08;;;;;;;7.90;3.50;;;0.10;99.90;;;;;;4427796;32;20461;-70
2021/03/08 07:40:39;;;;;;;5.70;3.30;;;0.30;99.90;;;;;;4426809;32;20442;-70
2021/03/08 07:43:06;;;;;;;9.80;3.50;;;0.40;99.90;;;;;;4426822;32;20146;-72
2021/03/08 07:45:40;;;;;;;7.30;3.00;;;0.50;99.90;;;;;;4427152;32;20150;-71
2021/03/08 07:48:11;;;;;;;5.60;3.33;;;0.60;99.90;;;;;;4428201;32;20223;-71
2021/03/08 07:50:39;;;;;;;8.70;3.50;;;0.50;99.90;;;;;;4426576;32;20202;-71
2021/03/08 07:53:36;;;;;;;8.13;3.33;;;0.60;99.90;;;;;;4426523;32;20202;-70
2021/03/08 07:56:04;;;;;;;5.83;2.70;;;0.60;99.90;;;;;;4427291;32;20169;-70
2021/03/08 07:58:36;;;;;;;5.23;2.97;;;0.60;99.90;;;;;;4428047;32;20151;-70
2021/03/08 08:01:08;;;;;;;6.23;2.73;;;0.50;99.90;;;;;;4427969;32;20151;-71
2021/03/08 08:03:38;;;;;;;6.33;3.10;;;0.60;99.90;;;;;;4413772;32;20177;-71
2021/03/08 08:06:07;;;;;;;6.37;3.20;;;0.70;99.90;;;;;;4426202;32;20155;-71
2021/03/08 08:08:38;;;;;;;5.73;3.13;;;0.80;99.90;;;;;;4427934;32;20165;-70
2021/03/08 08:11:06;;;;;;;12.17;4.57;;;0.90;99.90;;;;;;4427800;32;20139;-70
2021/03/08 08:13:42;;;;;;;6.83;3.23;;;0.90;99.90;;;;;;4426302;32;20214;-70
2021/03/08 08:16:10;;;;;;;6.03;2.73;;;1.10;99.90;;;;;;4427203;32;20221;-72
2021/03/08 08:18:45;;;;;;;6.37;2.83;;;1.10;98.40;;;;;;4426065;32;20467;-72
2021/03/08 08:21:20;;;;;;;6.67;2.63;;;1.30;97.80;;;;;;4426599;32;20161;-70
2021/03/08 08:23:56;;;;;;;6.37;2.40;;;1.80;96.40;;;;;;4427152;32;20608;-68
2021/03/08 08:26:24;;;;;;;4.67;2.57;;;2.50;94.50;;;;;;4425704;32;20217;-70
2021/03/08 08:28:53;;;;;;;5.20;2.87;;;3.00;91.80;;;;;;4424734;32;20194;-69
2021/03/08 08:31:19;;;;;;;5.60;3.00;;;3.50;91.40;;;;;;4425675;32;20142;-71
2021/03/08 08:33:46;;;;;;;6.43;2.50;;;3.40;88.90;;;;;;4426041;32;20426;-70
2021/03/08 08:36:25;;;;;;;5.83;2.80;;;2.90;90.40;;;;;;4427583;32;20188;-71
2021/03/08 08:38:54;;;;;;;4.87;2.53;;;3.30;91.10;;;;;;4426340;32;20147;-70
2021/03/08 08:41:32;;;;;;;7.67;2.80;;;3.60;90.40;;;;;;4426285;32;20143;-70
2021/03/08 08:44:08;;;;;;;7.13;2.80;;;3.60;88.40;;;;;;4426454;32;20177;-69
2021/03/08 08:46:36;;;;;;;8.17;3.13;;;3.50;89.00;;;;;;4425675;32;20160;-70
2021/03/08 08:49:12;;;;;;;7.07;2.90;;;3.80;87.80;;;;;;4425968;32;20163;-70
2021/03/08 08:51:54;;;;;;;6.13;2.60;;;4.10;88.20;;;;;;4425708;32;20219;-72
2021/03/08 08:54:27;;;;;;;4.20;2.40;;;4.60;86.20;;;;;;4427429;32;20217;-70
2021/03/08 08:57:07;;;;;;;6.17;2.03;;;5.20;84.50;;;;;;4425666;32;20151;-70
2021/03/08 08:59:36;;;;;;;4.90;2.50;;;5.40;78.10;;;;;;4426668;32;20203;-70
2021/03/08 09:04:42;;;;;;;6.07;2.20;;;5.90;75.90;;;;;;4425567;32;20413;-71
2021/03/08 09:07:29;;;;;;;5.20;2.10;;;5.40;73.70;;;;;;4425510;32;20162;-71
2021/03/08 09:10:00;;;;;;;4.67;2.10;;;4.30;76.20;;;;;;4427257;32;20142;-71
2021/03/08 09:12:39;;;;;;;5.53;2.07;;;3.40;78.50;;;;;;4425655;32;20454;-70
2021/03/08 09:15:11;;;;;;;7.07;1.97;;;3.30;81.50;;;;;;4426948;32;20462;-72
2021/03/08 09:17:47;;;;;;;4.13;2.00;;;3.50;80.00;;;;;;4425514;32;20166;-71
2021/03/08 09:20:13;;;;;;;4.50;1.60;;;3.30;77.80;;;;;;4424936;32;20166;-70
2021/03/08 09:22:46;;;;;;;4.67;1.90;;;3.50;78.30;;;;;;4425475;32;20190;-70
2021/03/08 09:25:17;;;;;;;6.43;1.67;;;3.50;78.70;;;;;;4425682;32;20204;-70
2021/03/08 09:27:51;;;;;;;6.43;1.63;;;3.30;75.40;;;;;;4398867;32;20531;-70
2021/03/08 09:30:21;;;;;;;3.93;1.33;;;3.30;75.40;;;;;;4425500;32;20358;-70
2021/03/08 09:33:01;;;;;;;3.93;1.50;;;3.70;74.70;;;;;;4425558;32;20568;-71
2021/03/08 09:35:41;;;;;;;2.57;1.43;;;4.00;75.80;;;;;;4425883;32;20210;-71
2021/03/08 09:38:14;;;;;;;3.60;1.40;;;4.30;72.30;;;;;;4424961;32;20288;-69
2021/03/08 09:40:44;;;;;;;2.70;1.20;;;4.70;70.60;;;;;;4425883;32;20147;-71
2021/03/08 09:43:26;;;;;;;1.67;1.23;;;4.80;68.60;;;;;;4424996;32;20143;-69
2021/03/08 09:46:05;;;;;;;4.43;2.30;;;5.20;66.50;;;;;;4426495;32;20196;-72
2021/03/08 09:48:36;;;;;;;3.67;1.70;;;4.90;67.60;;;;;;4425098;32;20390;-73
2021/03/08 09:51:18;;;;;;;3.27;1.60;;;4.90;67.50;;;;;;4425515;32;20422;-72
2021/03/08 09:53:46;;;;;;;4.10;1.60;;;5.10;69.30;;;;;;4424813;32;20141;-71
2021/03/08 09:56:21;;;;;;;3.67;1.60;;;4.80;67.50;;;;;;4425136;32;20176;-72
2021/03/08 09:59:05;;;;;;;4.23;1.63;;;3.80;70.00;;;;;;4425513;32;20145;-73
2021/03/08 10:01:32;;;;;;;3.77;1.50;;;3.40;72.70;;;;;;4411820;32;20386;-72
2021/03/08 10:04:01;;;;;;;6.33;1.90;;;3.20;74.30;;;;;;4424557;32;20147;-73
2021/03/08 10:06:45;;;;;;;3.53;1.70;;;3.00;74.50;;;;;;4424880;32;20138;-72
2021/03/08 10:09:18;;;;;;;6.30;1.70;;;3.40;75.10;;;;;;4425851;32;20537;-73
2021/03/08 10:11:44;;;;;;;4.50;1.40;;;3.70;72.90;;;;;;4426375;32;20232;-72
2021/03/08 10:14:25;;;;;;;3.70;1.50;;;4.10;71.50;;;;;;4424497;32;20144;-71
2021/03/08 10:17:13;;;;;;;5.97;1.70;;;4.40;68.80;;;;;;4425939;32;20144;-73
2021/03/08 10:19:53;;;;;;;3.33;1.60;;;5.30;68.00;;;;;;4424634;32;20139;-73
2021/03/08 10:22:41;;;;;;;5.00;1.63;;;5.30;65.00;;;;;;4424545;32;20469;-72
2021/03/08 10:25:22;;;;;;;5.47;1.90;;;5.40;65.40;;;;;;4424362;32;20206;-74
2021/03/08 10:28:03;;;;;;;5.20;1.90;;;5.30;66.50;;;;;;4424949;32;20229;-73
2021/03/08 10:30:32;;;;;;;5.77;2.10;;;5.40;67.50;;;;;;4425908;32;20446;-74
2021/03/08 10:33:11;;;;;;;7.00;1.90;;;5.60;68.30;;;;;;4425259;32;20140;-72
2021/03/08 10:35:47;;;;;;;4.00;1.70;;;6.40;66.30;;;;;;4424431;32;20155;-73
2021/03/08 10:38:33;;;;;;;5.67;1.60;;;6.80;64.30;;;;;;4424947;32;20170;-72
2021/03/08 10:41:02;;;;;;;4.00;1.57;;;6.90;59.40;;;;;;4424283;32;20170;-71
2021/03/08 10:43:30;;;;;;;5.07;1.80;;;6.70;58.60;;;;;;4424260;32;20145;-71
2021/03/08 10:46:00;;;;;;;3.43;1.60;;;6.00;58.00;;;;;;4424231;32;20465;-73
2021/03/08 10:48:27;;;;;;;7.73;2.00;;;5.00;59.90;;;;;;4424564;32;20217;-71
2021/03/08 10:50:57;;;;;;;4.87;1.80;;;5.00;63.60;;;;;;4423343;32;20158;-74
2021/03/08 10:54:02;;;;;;;6.07;2.33;;;5.10;64.10;;;;;;4424557;32;20152;-70
2021/03/08 10:56:34;;;;;;;5.47;2.13;;;5.10;64.80;;;;;;4361946;33;20177;-71
2021/03/08 10:59:01;;;;;;;3.63;1.90;;;4.60;64.70;;;;;;4361783;33;20163;-70
2021/03/08 11:01:30;;;;;;;5.60;2.10;;;4.40;66.60;;;;;;4362117;33;20246;-71
2021/03/08 11:03:57;;;;;;;6.63;2.20;;;4.40;68.00;;;;;;4362264;33;20183;-69
2021/03/08 11:06:24;;;;;;;6.27;2.03;;;4.70;68.10;;;;;;4361503;33;20185;-73
2021/03/08 11:09:02;;;;;;;6.37;1.80;;;4.60;68.30;;;;;;4361405;33;20498;-72
2021/03/08 11:11:34;;;;;;;3.70;1.70;;;4.50;67.60;;;;;;4361238;33;20157;-71
2021/03/08 11:14:05;;;;;;;3.50;1.50;;;4.20;66.70;;;;;;4361578;33;20165;-72
2021/03/08 11:16:34;;;;;;;3.73;1.70;;;4.20;67.40;;;;;;4361250;33;20403;-72
2021/03/08 11:19:27;;;;;;;5.00;1.70;;;3.80;66.30;;;;;;4361637;33;20161;-71
2021/03/08 11:22:10;;;;;;;6.43;1.63;;;3.90;68.40;;;;;;4361399;33;20228;-71
2021/03/08 11:25:03;;;;;;;4.40;1.60;;;3.70;67.20;;;;;;4362153;33;20183;-71
2021/03/08 11:27:29;;;;;;;4.77;1.83;;;3.60;70.30;;;;;;4360110;33;20174;-70
2021/03/08 11:30:06;;;;;;;6.80;2.10;;;3.50;70.40;;;;;;4362988;33;20149;-71
2021/03/08 11:32:34;;;;;;;3.03;1.50;;;3.40;69.70;;;;;;4367321;32;20152;-72
2021/03/08 11:35:18;;;;;;;6.40;1.50;;;3.40;70.30;;;;;;4408086;32;20201;-72
2021/03/08 11:38:04;;;;;;;5.00;1.57;;;3.50;70.00;;;;;;4408493;32;20519;-72
2021/03/08 11:40:32;;;;;;;2.93;1.43;;;3.60;70.50;;;;;;4408567;32;20148;-72
2021/03/08 11:42:59;;;;;;;3.87;1.50;;;3.60;70.90;;;;;;4408561;32;20151;-72
2021/03/08 11:45:27;;;;;;;3.10;1.60;;;3.70;72.30;;;;;;4408323;32;20208;-71
2021/03/08 11:47:55;;;;;;;3.43;1.67;;;3.70;73.20;;;;;;4407622;32;20144;-71
2021/03/08 11:50:24;;;;;;;4.27;1.50;;;3.30;71.50;;;;;;4408207;32;20227;-72
2021/03/08 11:52:51;;;;;;;5.33;1.80;;;3.50;73.00;;;;;;4408943;32;20139;-72
2021/03/08 11:55:18;;;;;;;3.27;2.00;;;3.50;71.80;;;;;;4407879;32;20178;-73
2021/03/08 11:57:46;;;;;;;5.30;2.00;;;3.20;73.30;;;;;;4408363;32;20413;-72
2021/03/08 12:00:15;;;;;;;4.53;1.80;;;3.40;73.30;;;;;;4408677;32;20178;-72
2021/03/08 12:02:41;;;;;;;4.93;1.90;;;3.60;73.00;;;;;;4410928;32;20144;-72
2021/03/08 12:05:09;;;;;;;4.20;1.63;;;3.60;71.20;;;;;;4418947;32;20166;-70
2021/03/08 12:07:36;;;;;;;3.70;1.70;;;3.50;71.20;;;;;;4428052;32;20478;-71
2021/03/08 12:10:05;;;;;;;3.13;1.60;;;3.20;70.90;;;;;;4427967;32;20454;-71
2021/03/08 12:12:31;;;;;;;2.73;1.60;;;2.80;73.50;;;;;;4412370;32;20491;-73
2021/03/08 12:15:02;;;;;;;5.97;2.00;;;2.40;77.40;;;;;;4425679;32;20169;-73
2021/03/08 12:17:28;;;;;;;4.13;1.57;;;2.00;80.40;;;;;;4425945;32;20170;-72
2021/03/08 12:19:56;;;;;;;3.50;1.83;;;1.90;82.10;;;;;;4427122;32;20142;-73
2021/03/08 12:22:23;;;;;;;4.77;1.80;;;2.00;81.50;;;;;;4426913;32;20191;-72
2021/03/08 12:24:50;;;;;;;3.27;1.87;;;2.30;83.10;;;;;;4426021;32;20166;-72
2021/03/08 12:27:17;;;;;;;3.30;1.90;;;2.30;81.20;;;;;;4425904;32;20143;-73
2021/03/08 12:29:43;;;;;;;4.40;2.00;;;2.30;82.20;;;;;;4426151;32;20166;-72
2021/03/08 12:32:10;;;;;;;4.67;1.80;;;2.60;80.50;;;;;;4426196;32;20438;-72
2021/03/08 12:34:37;;;;;;;4.23;1.90;;;3.00;80.80;;;;;;4425607;32;20193;-73
2021/03/08 12:37:03;;;;;;;3.60;2.17;;;3.10;76.60;;;;;;4427674;32;20185;-74
2021/03/08 12:39:31;;;;;;;10.30;2.63;;;2.90;77.10;;;;;;4425392;32;20185;-74
2021/03/08 12:41:57;;;;;;;5.17;1.93;;;3.00;76.60;;;;;;4425428;32;20205;-75
2021/03/08 12:44:24;;;;;;;4.63;1.90;;;2.90;74.90;;;;;;4425554;32;20170;-73
2021/03/08 12:46:50;;;;;;;4.37;1.90;;;2.90;76.40;;;;;;4426093;32;20147;-73
2021/03/08 12:49:17;;;;;;;7.90;2.03;;;3.10;76.90;;;;;;4425909;32;20189;-72
2021/03/08 12:51:45;;;;;;;4.60;1.90;;;2.90;76.20;;;;;;4425185;32;20158;-73
2021/03/08 12:54:12;;;;;;;3.90;2.00;;;2.80;78.80;;;;;;4412080;32;20170;-74
2021/03/08 12:56:38;;;;;;;3.73;1.90;;;2.60;83.30;;;;;;4425369;32;20206;-73
2021/03/08 12:59:05;;;;;;;3.70;2.00;;;2.30;87.60;;;;;;4425502;32;20174;-73
2021/03/08 13:01:31;;;;;;;3.43;1.90;;;2.40;89.90;;;;;;4425489;32;20147;-73
2021/03/08 13:03:58;;;;;;;2.53;1.53;;;2.20;91.70;;;;;;4425482;32;20139;-73
2021/03/08 13:06:25;;;;;;;4.70;1.93;;;2.20;92.80;;;;;;4426213;32;20352;-73
2021/03/08 13:09:03;;;;;;;3.23;1.43;;;2.00;92.80;;;;;;4425123;32;20366;-73
2021/03/08 13:11:30;;;;;;;4.17;1.40;;;1.50;92.20;;;;;;4425085;32;20190;-72
2021/03/08 13:13:57;;;;;;;3.90;1.40;;;1.40;93.30;;;;;;4424611;32;20142;-73